x

Fowey Rock, Fl (fwyf1) Weather Station

9:00pm - Tue 22nd Jan 2019 All times are EST. -5 hours from GMT.

  • Wind
    33mph, 36mph gusts
  • Sea Temp 74°f
  • Air Temp 71°f
  • Sea Pressure 1026.4mb
  • Fowey Rock, Fl
  • Fowey Rock, Fl

More Historic Weather Station data

Upgrade to MSW Pro to gain access to the past 30 days of data for over 8000 Wavebouys and Weather Stations around the globe.

Join

Comparision Forecast

View Surf forecast
   
Tue 01/22 9:00pm 33 36 mph 1026.4mb 74f 71f
8:00pm 31 33 mph 1026.3mb 74f 71f
7:00pm 34 37 mph 1025.8mb 74f 72f
6:00pm 33 36 mph 1025.7mb 73f 72f
5:00pm 30 32 mph 1026mb 74f 72f
4:00pm 30 33 mph 1026.1mb 74f 71f
3:00pm 29 31 mph 1026.3mb 74f 71f
2:00pm 31 33 mph 1026.2mb 74f 71f
1:00pm 30 32 mph 1027mb 74f 71f
12:00pm 29 32 mph 1027.7mb 74f 72f
11:00am 28 30 mph 1028.1mb 73f 71f
10:00am 30 33 mph 1027.9mb 74f 71f
9:00am 26 31 mph 1027.2mb 73f 71f
8:00am 25 28 mph 1026.5mb 73f 71f
7:00am 23 26 mph 1026.1mb 73f 71f
6:00am 24 29 mph 1025.4mb 73f 71f
5:00am 28 31 mph 1025mb 73f 71f
4:00am 25 31 mph 1025mb 73f 71f
3:00am 25 30 mph 1024.9mb 72f 71f
2:00am 26 30 mph 1025.3mb 72f 70f
1:00am 23 28 mph 1025.6mb 73f 70f
12:00am 24 26 mph 1026mb 73f 70f
Mon 01/21 11:00pm 21 23 mph 1026.1mb 73f 70f
10:00pm 26 28 mph 1025.8mb 73f 70f
9:00pm 25 26 mph 1025.7mb 73f 69f
8:00pm 18 21 mph 1025.4mb 73f 70f
7:00pm 20 22 mph 1024.5mb 73f 70f
6:00pm 20 21 mph 1024.1mb 73f 69f
5:00pm 17 22 mph 1023.8mb 73f 68f
4:00pm 18 20 mph 1023.6mb 72f 66f
3:00pm 22 24 mph 1023.7mb 73f 64f
2:00pm 21 22 mph 1023.7mb 73f 63f
1:00pm 14 15 mph 1024.1mb 73f 60f
12:00pm 13 14 mph 1024.9mb 73f 58f
11:00am 13 14 mph 1025mb 73f 56f
10:00am 13 15 mph 1024.9mb 73f 54f
9:00am 11 14 mph 1024.1mb 73f 53f
8:00am 13 14 mph 1023.9mb 73f 52f
7:00am 14 15 mph 1023.5mb 73f 51f
6:00am 18 21 mph 1023.2mb 73f 51f
5:00am 20 22 mph 1022.3mb 73f 52f
4:00am 21 24 mph 1021.9mb 71f 52f
3:00am 24 28 mph 1021.9mb 71f 52f
2:00am 28 34 mph 1021.7mb 71f 54f
1:00am 36 37 mph 1021.5mb 71f 56f
12:00am 28 31 mph 1021.5mb 72f 58f
Sun 01/20 11:00pm 30 32 mph 1020.8mb 72f 59f
10:00pm 26 30 mph 1019.8mb 73f 61f
9:00pm 26 30 mph 1019.1mb 74f 62f
8:00pm 25 29 mph 1018.4mb 74f 64f
7:00pm 25 28 mph 1017.6mb 73f 65f
6:00pm 26 30 mph 1016.8mb 73f 66f
5:00pm 25 29 mph 1015.8mb 73f 69f
4:00pm 25 28 mph 1014.9mb 73f 69f
3:00pm 32 34 mph 1014.4mb 73f 69f
2:00pm 32 36 mph 1014.1mb 74f 71f
1:00pm 22 24 mph 1014.3mb 74f 69f
12:00pm 22 24 mph 1014.8mb 74f 67f
11:00am 22 26 mph 1015.5mb 74f 68f
10:00am 22 24 mph 1014.4mb 75f 69f
9:00am 24 26 mph 1013.6mb 74f 68f
8:00am 24 26 mph 1013mb 75f 74f
7:00am 23 26 mph 1012.2mb 75f 74f
6:00am 25 28 mph 1011.7mb 74f 74f
5:00am 26 30 mph 1011.7mb 74f 74f
4:00am 25 28 mph 1012.2mb 74f 74f
3:00am 23 25 mph 1012.6mb 73f 75f
2:00am 21 23 mph 1013.6mb 73f 75f
1:00am 23 25 mph 1013.9mb 74f 75f
12:00am 23 24 mph 1014.2mb 74f 74f
Sat 01/19 11:00pm 22 23 mph 1014.6mb 75f 74f
10:00pm 22 23 mph 1014.8mb 75f 74f
9:00pm 20 22 mph 1015.1mb 75f 74f
8:00pm 17 20 mph 1015.4mb 75f 74f
7:00pm 17 20 mph 1015.2mb 75f 73f
6:00pm 15 16 mph 1015.4mb 75f 73f
5:00pm 13 14 mph 1016mb 75f 74f
4:00pm 13 15 mph 1015.9mb 75f 73f
3:00pm 14 15 mph 1016.5mb 75f 73f
2:00pm 16 17 mph 1016.8mb 75f 73f
1:00pm 17 20 mph 1017.6mb 75f 73f
12:00pm 17 18 mph 1018.8mb 75f 74f
11:00am 16 17 mph 1019.2mb 75f 74f
10:00am 17 20 mph 1019.3mb 75f 73f
9:00am 17 18 mph 1018.9mb 75f 73f
8:00am 17 20 mph 1018.6mb 75f 73f
7:00am 15 16 mph 1018.6mb 75f 73f
6:00am 15 16 mph 1018.6mb 75f 73f
5:00am 11 13 mph 1018.2mb 75f 73f
4:00am 11 14 mph 1018.6mb 75f 73f